Terminal Aerodrome Forecast
Issued by NWS Lake Charles, LA

Home | Current Version | Previous Version | Text Only | Print | Product List | Glossary On
Versions: 1 2 3 4 5 6 7 8 9 10 11 12 13 14 15 16
330
FTUS44 KLCH 300520
TAFARA
TAF
KARA 300520Z 3006/3106 VRB03KT P6SM SKC
     FM301400 VRB05KT P6SM VCSH SCT025
     FM301700 VRB05KT P6SM VCTS SCT040CB SCT250
     FM310100 VRB03KT P6SM SCT250=

USA.gov is the U.S. government's official web portal to all federal, state and local government web resources and services.